Middleport, Pennsylvania
Current Conditions -  °F | °C
As of 11:15 PM on Saturday 25 Oct 2014 (Local Time) from KHZL Reporting Station
Light Rain Light Rain  
Wind Chill: 59°   Ceiling: 5000
Heat Index: 59°   Visibility: 10mi
Dew Point: 48°   Wind: 9mph
Humidity: 67%   Direction: 270°W
Pressure: 29.66"   Gusts: 23mph
Location:  40.73°N, 76.09°W
Report Text: KHZL 260315Z AUTO 27008G20KT 10SM -RA SCT036 BKN050 OVC070 15/09 A2966 RMK AO2
Loading
Personal Weather Stations






























Interactive Weather Map
Tropical Storm Tracking
New forecast layout! Learn more

10-Day Weather Forecast

Advertisements
Track Severe Weather on mobile